createdAt,value
2022-08-23T00:02:31.963Z,59.19
2022-08-23T00:05:08.888Z,59.26
2022-08-23T00:07:45.233Z,59.06
2022-08-23T00:10:19.371Z,59.60
2022-08-23T00:12:51.640Z,59.35
2022-08-23T00:15:23.993Z,59.31
2022-08-23T00:17:56.533Z,59.49
2022-08-23T00:20:28.858Z,59.49
2022-08-23T00:23:01.143Z,59.36
2022-08-23T00:25:33.348Z,59.45
2022-08-23T00:28:11.444Z,59.40
2022-08-23T00:30:47.296Z,59.17
2022-08-23T00:33:19.498Z,59.54
2022-08-23T00:35:51.698Z,59.62
2022-08-23T00:38:34.036Z,59.43
2022-08-23T00:41:07.540Z,59.68
2022-08-23T00:44:00.932Z,59.60
2022-08-23T00:47:01.819Z,59.83
2022-08-23T00:49:37.234Z,59.53
2022-08-23T00:52:10.829Z,59.64
2022-08-23T00:54:44.427Z,59.75
2022-08-23T00:57:19.880Z,59.70
2022-08-23T00:59:52.094Z,59.67
2022-08-23T01:02:24.939Z,59.88
2022-08-23T01:04:59.638Z,59.74
2022-08-23T01:07:42.263Z,60.07
2022-08-23T01:10:22.382Z,60.12
2022-08-23T01:13:03.419Z,60.07
2022-08-23T01:15:40.084Z,59.92
2022-08-23T01:18:16.427Z,59.93
2022-08-23T01:21:03.002Z,60.05
2022-08-23T01:23:42.032Z,60.21
2022-08-23T01:26:22.054Z,60.23
2022-08-23T01:28:55.725Z,60.23
2022-08-23T01:31:28.207Z,60.12
2022-08-23T01:34:06.787Z,60.22
2022-08-23T01:36:39.700Z,60.41
2022-08-23T01:39:12.551Z,60.46
2022-08-23T01:41:45.071Z,60.32
2022-08-23T01:44:17.664Z,60.57
2022-08-23T01:46:50.690Z,60.49
2022-08-23T01:49:30.175Z,60.21
2022-08-23T01:52:02.512Z,60.43
2022-08-23T01:54:34.695Z,60.51
2022-08-23T01:57:08.897Z,60.47
2022-08-23T01:59:41.433Z,60.53
2022-08-23T02:02:15.215Z,60.72
2022-08-23T02:04:47.419Z,60.60
2022-08-23T02:07:20.900Z,60.73
2022-08-23T02:09:53.067Z,60.47
2022-08-23T02:12:25.512Z,60.44
2022-08-23T02:14:57.677Z,60.57
2022-08-23T02:17:29.904Z,60.83
2022-08-23T02:20:04.491Z,60.78
2022-08-23T02:22:37.770Z,60.76
2022-08-23T02:25:11.496Z,60.77
2022-08-23T02:27:44.290Z,60.92
2022-08-23T02:30:17.041Z,60.87
2022-08-23T02:32:49.200Z,60.77
2022-08-23T02:35:24.530Z,60.78
2022-08-23T02:37:56.685Z,60.95
2022-08-23T02:40:28.894Z,60.72
2022-08-23T02:43:01.225Z,60.79
2022-08-23T02:45:33.607Z,60.80
2022-08-23T02:48:06.491Z,60.96
2022-08-23T02:50:39.143Z,61.08
2022-08-23T02:53:11.373Z,61.09
2022-08-23T02:55:45.627Z,61.11
2022-08-23T02:58:17.911Z,61.19
2022-08-23T03:00:51.920Z,61.13
2022-08-23T03:03:24.355Z,61.00
2022-08-23T03:05:57.176Z,61.09
2022-08-23T03:08:49.647Z,61.19
2022-08-23T03:11:23.466Z,61.29
2022-08-23T03:13:57.646Z,61.27
2022-08-23T03:16:30.318Z,61.16
2022-08-23T03:19:03.031Z,61.12
2022-08-23T03:21:35.499Z,61.22
2022-08-23T03:24:10.356Z,61.48
2022-08-23T03:26:45.911Z,61.14
2022-08-23T03:29:18.993Z,61.39
2022-08-23T03:31:51.788Z,61.16
2022-08-23T03:34:26.679Z,61.50
2022-08-23T03:36:59.103Z,61.45
2022-08-23T03:39:31.667Z,61.35
2022-08-23T03:42:03.928Z,61.40
2022-08-23T03:44:36.176Z,61.45
2022-08-23T03:47:08.942Z,61.33
2022-08-23T03:49:41.562Z,61.60
2022-08-23T03:52:14.097Z,61.54
2022-08-23T03:54:46.239Z,61.47
2022-08-23T03:57:18.376Z,61.67
2022-08-23T03:59:50.668Z,61.56
2022-08-23T04:02:22.887Z,61.56
2022-08-23T04:04:55.076Z,61.72
2022-08-23T04:07:27.716Z,61.62
2022-08-23T04:09:59.900Z,61.60
2022-08-23T04:12:32.089Z,61.74
2022-08-23T04:15:05.363Z,61.61
2022-08-23T04:17:37.659Z,61.73
2022-08-23T04:20:11.572Z,61.74
2022-08-23T04:22:45.930Z,61.63
2022-08-23T04:25:34.996Z,61.85
2022-08-23T04:28:08.011Z,61.96
2022-08-23T04:30:40.146Z,61.93
2022-08-23T04:33:17.882Z,61.79
2022-08-23T04:35:50.519Z,61.73
2022-08-23T04:38:24.457Z,61.72
2022-08-23T04:41:16.123Z,61.71
2022-08-23T04:43:48.839Z,61.53
2022-08-23T04:46:21.102Z,61.67
2022-08-23T04:48:54.254Z,61.47
2022-08-23T04:51:26.432Z,61.64
2022-08-23T04:53:58.664Z,61.74
2022-08-23T04:56:31.258Z,61.57
2022-08-23T04:59:03.552Z,61.77
2022-08-23T05:01:36.283Z,61.79
2022-08-23T05:04:09.208Z,61.74
2022-08-23T05:06:41.392Z,61.63
2022-08-23T05:09:17.235Z,61.56
2022-08-23T05:11:52.674Z,61.45
2022-08-23T05:14:24.813Z,61.49
2022-08-23T05:16:57.524Z,61.26
2022-08-23T05:19:29.768Z,61.41
2022-08-23T05:22:01.971Z,61.17
2022-08-23T05:24:34.264Z,61.15
2022-08-23T05:27:08.684Z,61.05
2022-08-23T05:29:44.011Z,60.74
2022-08-23T05:32:16.159Z,60.83
2022-08-23T05:34:48.577Z,60.65
2022-08-23T05:37:20.844Z,60.60
2022-08-23T05:39:53.208Z,60.66
2022-08-23T05:42:25.839Z,60.62
2022-08-23T05:44:58.087Z,60.32
2022-08-23T05:47:33.787Z,60.29
2022-08-23T05:50:07.409Z,60.24
2022-08-23T05:52:39.800Z,60.29
2022-08-23T05:55:12.371Z,60.25
2022-08-23T05:57:44.630Z,60.10
2022-08-23T06:00:17.202Z,60.16
2022-08-23T06:02:50.498Z,60.04
2022-08-23T06:05:22.707Z,59.88
2022-08-23T06:07:56.719Z,59.75
2022-08-23T06:10:28.912Z,59.68
2022-08-23T06:13:02.990Z,59.82
2022-08-23T06:15:35.187Z,59.61
2022-08-23T06:18:07.399Z,59.64
2022-08-23T06:20:39.684Z,59.76
2022-08-23T06:23:12.235Z,59.17
2022-08-23T06:25:44.476Z,59.19
2022-08-23T06:28:16.680Z,59.13
2022-08-23T06:30:48.915Z,59.17
2022-08-23T06:33:21.744Z,59.20
2022-08-23T06:36:06.340Z,58.92
2022-08-23T06:38:38.904Z,58.70
2022-08-23T06:41:13.947Z,58.43
2022-08-23T06:43:48.819Z,58.29
2022-08-23T06:46:21.292Z,58.05
2022-08-23T06:48:56.315Z,57.80
2022-08-23T06:51:31.768Z,57.36
2022-08-23T06:54:07.159Z,57.26
2022-08-23T06:56:40.671Z,57.33
2022-08-23T06:59:13.556Z,57.31
2022-08-23T07:01:48.296Z,57.01
2022-08-23T07:04:23.324Z,56.83
2022-08-23T07:06:55.756Z,56.60
2022-08-23T07:09:28.334Z,55.84
2022-08-23T07:12:01.659Z,55.28
2022-08-23T07:14:33.956Z,55.59
2022-08-23T07:17:06.680Z,55.66
2022-08-23T07:19:39.311Z,55.37
2022-08-23T07:22:12.124Z,55.34
2022-08-23T07:24:44.650Z,54.82
2022-08-23T07:27:16.881Z,54.16
2022-08-23T07:29:49.275Z,53.35
2022-08-23T07:32:21.453Z,53.63
2022-08-23T07:34:53.697Z,53.63
2022-08-23T07:37:26.461Z,53.25
2022-08-23T07:39:59.129Z,53.52
2022-08-23T07:42:31.404Z,53.37
2022-08-23T07:45:04.168Z,52.55
2022-08-23T07:47:36.792Z,52.71
2022-08-23T07:50:10.667Z,52.56
2022-08-23T07:52:42.963Z,52.79
2022-08-23T07:55:15.277Z,52.21
2022-08-23T07:57:47.428Z,51.98
2022-08-23T08:00:20.138Z,52.23
2022-08-23T08:02:52.643Z,51.82
2022-08-23T08:05:27.360Z,51.70
2022-08-23T08:07:59.719Z,50.95
2022-08-23T08:10:32.311Z,50.88
2022-08-23T08:13:04.506Z,50.73
2022-08-23T08:15:37.107Z,50.97
2022-08-23T08:18:09.327Z,51.13
2022-08-23T08:20:46.090Z,51.32
2022-08-23T08:23:18.312Z,51.18
2022-08-23T08:25:50.517Z,50.98
2022-08-23T08:28:23.901Z,50.57
2022-08-23T08:30:56.192Z,50.42
2022-08-23T08:33:30.864Z,50.34
2022-08-23T08:36:03.741Z,49.95
2022-08-23T08:38:48.267Z,49.02
2022-08-23T08:41:37.740Z,48.98
2022-08-23T08:44:21.304Z,49.20
2022-08-23T08:46:57.918Z,48.75
2022-08-23T08:49:38.069Z,48.48
2022-08-23T08:52:16.304Z,47.99
2022-08-23T08:54:53.268Z,48.11
2022-08-23T08:57:27.883Z,47.73
2022-08-23T09:00:04.273Z,47.48
2022-08-23T09:02:38.939Z,47.04
2022-08-23T09:05:15.892Z,46.54
2022-08-23T09:07:59.472Z,45.91
2022-08-23T09:10:54.259Z,45.35
2022-08-23T09:13:53.713Z,45.87
2022-08-23T09:16:41.223Z,45.54
2022-08-23T09:19:13.728Z,45.00
2022-08-23T09:21:49.629Z,45.28
2022-08-23T09:24:22.251Z,44.65
2022-08-23T09:26:55.031Z,44.08
2022-08-23T09:29:30.034Z,44.19
2022-08-23T09:32:03.612Z,43.65
2022-08-23T09:34:43.840Z,43.69
2022-08-23T09:37:20.743Z,43.56
2022-08-23T09:39:55.824Z,43.56
2022-08-23T09:42:36.004Z,42.76
2022-08-23T09:45:26.556Z,42.48
2022-08-23T09:47:58.985Z,42.37
2022-08-23T09:50:35.514Z,42.39
2022-08-23T09:53:11.132Z,42.24
2022-08-23T09:55:48.235Z,41.66
2022-08-23T09:58:27.551Z,41.53
2022-08-23T10:01:19.605Z,41.96
2022-08-23T10:04:10.691Z,42.14
2022-08-23T10:06:46.167Z,41.81
2022-08-23T10:09:28.708Z,41.77
2022-08-23T10:12:02.981Z,42.03
2022-08-23T10:14:35.347Z,42.06
2022-08-23T10:17:19.745Z,41.83
2022-08-23T10:20:00.118Z,41.91
2022-08-23T10:22:42.086Z,41.83
2022-08-23T10:25:20.016Z,41.54
2022-08-23T10:28:21.867Z,41.87
2022-08-23T10:31:01.504Z,40.96
2022-08-23T10:33:43.471Z,41.01
2022-08-23T10:36:22.404Z,41.32
2022-08-23T10:39:00.808Z,41.55
2022-08-23T10:41:51.723Z,41.65
2022-08-23T10:44:33.304Z,41.35
2022-08-23T10:47:16.745Z,41.35
2022-08-23T10:49:53.551Z,41.52
2022-08-23T10:52:31.125Z,41.24
2022-08-23T10:55:17.535Z,41.19
2022-08-23T10:57:53.378Z,41.13
2022-08-23T11:00:29.319Z,41.04
2022-08-23T11:03:19.190Z,41.22
2022-08-23T11:06:42.169Z,41.41
2022-08-23T11:09:32.805Z,41.37
2022-08-23T11:12:20.215Z,41.01
2022-08-23T11:15:05.153Z,41.07
2022-08-23T11:17:53.917Z,41.01
2022-08-23T11:21:01.226Z,41.16
2022-08-23T11:23:43.564Z,41.44
2022-08-23T11:26:53.344Z,41.31
2022-08-23T11:29:34.761Z,41.28
2022-08-23T11:32:26.931Z,41.81
2022-08-23T11:35:10.261Z,41.66
2022-08-23T11:38:03.833Z,41.82
2022-08-23T11:41:12.779Z,42.08
2022-08-23T11:43:47.803Z,42.06
2022-08-23T11:46:37.386Z,42.07
2022-08-23T11:49:32.184Z,41.89
2022-08-23T11:52:17.335Z,42.22
2022-08-23T11:55:08.612Z,42.15
2022-08-23T11:57:57.923Z,41.94
2022-08-23T12:00:51.347Z,42.42
2022-08-23T12:03:34.113Z,42.76
2022-08-23T12:06:31.878Z,42.73
2022-08-23T12:09:12.411Z,42.95
2022-08-23T12:12:27.727Z,42.91
2022-08-23T12:15:02.412Z,43.00
2022-08-23T12:18:11.648Z,43.08
2022-08-23T12:20:48.448Z,43.34
2022-08-23T12:23:23.147Z,43.40
2022-08-23T12:26:14.038Z,43.22
2022-08-23T12:28:50.963Z,43.26
2022-08-23T12:31:34.248Z,43.39
2022-08-23T12:34:25.774Z,43.13
2022-08-23T12:37:09.578Z,43.35
2022-08-23T12:39:50.414Z,43.49
2022-08-23T12:42:29.382Z,43.47
2022-08-23T12:45:09.919Z,43.41
2022-08-23T12:47:43.514Z,43.30
2022-08-23T12:50:32.846Z,43.90
2022-08-23T12:53:09.917Z,43.44
2022-08-23T12:55:45.279Z,43.27
2022-08-23T12:58:16.934Z,43.26
2022-08-23T13:00:58.320Z,43.25
2022-08-23T13:03:35.973Z,43.00
2022-08-23T13:06:11.843Z,43.11
2022-08-23T13:08:49.255Z,43.33
2022-08-23T13:11:26.248Z,43.08
2022-08-23T13:13:58.699Z,42.88
2022-08-23T13:16:43.865Z,43.04
2022-08-23T13:19:31.841Z,42.98
2022-08-23T13:22:22.266Z,42.67
2022-08-23T13:28:03.059Z,42.34
2022-08-23T13:30:37.354Z,42.68
2022-08-23T13:33:25.579Z,42.44
2022-08-23T13:36:13.247Z,42.45
2022-08-23T13:38:47.066Z,42.05
2022-08-23T13:41:38.414Z,41.99
2022-08-23T13:44:15.623Z,41.91
2022-08-23T13:46:51.314Z,42.00
2022-08-23T13:49:28.718Z,42.01
2022-08-23T13:52:41.609Z,42.39
2022-08-23T13:55:03.255Z,42.21
2022-08-23T13:57:37.336Z,42.29
2022-08-23T14:00:15.335Z,41.99
2022-08-23T14:02:51.020Z,41.98
2022-08-23T14:05:25.151Z,41.86
2022-08-23T14:07:57.478Z,41.80
2022-08-23T14:10:30.176Z,41.64
2022-08-23T14:13:03.098Z,41.68
2022-08-23T14:18:28.280Z,41.38
2022-08-23T14:21:02.003Z,41.50
2022-08-23T14:23:34.224Z,41.71
2022-08-23T14:26:06.827Z,41.50
2022-08-23T14:28:44.290Z,41.55
2022-08-23T14:31:16.790Z,41.67
2022-08-23T14:33:49.555Z,41.12
2022-08-23T14:36:22.037Z,41.23
2022-08-23T14:38:57.445Z,41.37
2022-08-23T14:41:31.856Z,41.21
2022-08-23T14:44:05.144Z,41.03
2022-08-23T14:46:37.356Z,41.14
2022-08-23T14:49:09.626Z,41.07
2022-08-23T14:51:46.318Z,40.82
2022-08-23T14:54:23.031Z,41.15
2022-08-23T14:56:55.727Z,41.41
2022-08-23T14:59:27.979Z,41.18
2022-08-23T15:02:01.001Z,41.12
2022-08-23T15:04:34.301Z,41.20
2022-08-23T15:07:18.275Z,41.39
2022-08-23T15:09:55.907Z,41.09
2022-08-23T15:15:22.345Z,41.27
2022-08-23T15:17:58.008Z,41.10
2022-08-23T15:20:34.443Z,41.17
2022-08-23T15:23:08.015Z,41.05
2022-08-23T15:25:42.300Z,41.11
2022-08-23T15:28:16.865Z,41.30
2022-08-23T15:30:50.604Z,41.31
2022-08-23T15:33:27.004Z,41.16
2022-08-23T15:36:03.650Z,41.24
2022-08-23T15:38:36.797Z,41.28
2022-08-23T15:41:09.596Z,41.50
2022-08-23T15:43:43.119Z,41.56
2022-08-23T15:46:21.642Z,41.80
2022-08-23T15:48:58.940Z,41.93
2022-08-23T15:51:31.380Z,42.33
2022-08-23T15:54:04.096Z,42.83
2022-08-23T15:56:41.353Z,43.32
2022-08-23T15:59:17.626Z,43.39
2022-08-23T16:01:49.920Z,43.50
2022-08-23T16:04:22.127Z,44.21
2022-08-23T16:06:54.294Z,44.00
2022-08-23T16:09:28.162Z,44.35
2022-08-23T16:12:00.662Z,44.79
2022-08-23T16:14:33.152Z,45.03
2022-08-23T16:17:06.100Z,46.05
2022-08-23T16:19:38.425Z,46.59
2022-08-23T16:22:10.650Z,47.05
2022-08-23T16:24:42.990Z,47.76
2022-08-23T16:27:15.242Z,47.20
2022-08-23T16:29:47.389Z,47.43
2022-08-23T16:32:19.593Z,48.73
2022-08-23T16:34:51.944Z,49.35
2022-08-23T16:37:24.195Z,49.82
2022-08-23T16:39:56.487Z,50.27
2022-08-23T16:42:28.676Z,50.48
2022-08-23T16:45:01.029Z,50.70
2022-08-23T16:47:34.947Z,51.09
2022-08-23T16:50:08.267Z,51.66
2022-08-23T16:52:40.496Z,51.60
2022-08-23T16:55:14.586Z,50.84
2022-08-23T16:57:46.804Z,50.57
2022-08-23T17:00:19.893Z,50.73
2022-08-23T17:02:52.114Z,51.10
2022-08-23T17:05:25.022Z,51.29
2022-08-23T17:07:57.308Z,51.23
2022-08-23T17:10:30.840Z,51.46
2022-08-23T17:13:03.670Z,51.67
2022-08-23T17:15:38.051Z,52.17
2022-08-23T17:18:10.735Z,52.12
2022-08-23T17:20:43.829Z,52.16
2022-08-23T17:23:16.147Z,52.36
2022-08-23T17:25:50.555Z,53.82
2022-08-23T17:28:22.928Z,53.94
2022-08-23T17:30:55.485Z,54.69
2022-08-23T17:33:28.654Z,55.14
2022-08-23T17:36:00.824Z,55.44
2022-08-23T17:38:33.160Z,55.37
2022-08-23T17:41:05.319Z,55.90
2022-08-23T17:43:37.576Z,55.83
2022-08-23T17:46:10.054Z,56.15
2022-08-23T17:48:42.420Z,56.17
2022-08-23T17:51:14.577Z,56.31
2022-08-23T17:53:47.556Z,56.58
2022-08-23T17:56:19.762Z,56.55
2022-08-23T17:58:52.979Z,56.77
2022-08-23T18:01:25.366Z,56.84
2022-08-23T18:03:57.931Z,56.80
2022-08-23T18:06:30.125Z,56.80
2022-08-23T18:09:03.506Z,56.96
2022-08-23T18:11:36.579Z,57.11
2022-08-23T18:14:09.467Z,56.92
2022-08-23T18:16:44.099Z,57.12
2022-08-23T18:19:18.516Z,58.64
2022-08-23T18:21:50.864Z,58.80
2022-08-23T18:24:23.204Z,58.63
2022-08-23T18:27:13.080Z,58.58
2022-08-23T18:29:45.644Z,58.53
2022-08-23T18:32:23.811Z,58.42
2022-08-23T18:34:56.153Z,58.43
2022-08-23T18:37:28.439Z,58.24
2022-08-23T18:40:00.996Z,58.54
2022-08-23T18:42:33.259Z,58.52
2022-08-23T18:45:05.907Z,58.53
2022-08-23T18:47:39.080Z,58.81
2022-08-23T18:50:14.548Z,58.92
2022-08-23T18:52:46.782Z,58.93
2022-08-23T18:55:20.341Z,59.11
2022-08-23T18:57:52.484Z,59.31
2022-08-23T19:00:24.672Z,59.52
2022-08-23T19:02:57.447Z,59.52
2022-08-23T19:05:41.682Z,59.56
2022-08-23T19:08:15.879Z,59.42
2022-08-23T19:10:48.769Z,59.30
2022-08-23T19:13:20.990Z,59.53
2022-08-23T19:15:53.529Z,59.68
2022-08-23T19:18:25.782Z,59.88
2022-08-23T19:20:57.968Z,60.04
2022-08-23T19:23:30.217Z,60.31
2022-08-23T19:26:03.575Z,60.35
2022-08-23T19:28:38.627Z,60.17
2022-08-23T19:31:11.654Z,60.10
2022-08-23T19:33:44.347Z,60.28
2022-08-23T19:36:42.769Z,60.42
2022-08-23T19:39:09.864Z,60.50
2022-08-23T19:41:42.379Z,60.72
2022-08-23T19:44:15.131Z,60.67
2022-08-23T19:46:50.067Z,60.83
2022-08-23T19:49:23.048Z,60.50
2022-08-23T19:51:55.441Z,60.60
2022-08-23T19:54:28.399Z,60.43
2022-08-23T19:57:02.091Z,60.97
2022-08-23T19:59:36.679Z,61.05
2022-08-23T20:02:09.900Z,60.99
2022-08-23T20:04:42.271Z,61.18
2022-08-23T20:07:14.397Z,61.43
2022-08-23T20:09:47.205Z,61.29
2022-08-23T20:12:19.443Z,61.28
2022-08-23T20:14:51.629Z,61.42
2022-08-23T20:17:24.145Z,61.75
2022-08-23T20:19:56.786Z,61.62
2022-08-23T20:22:54.732Z,61.59
2022-08-23T20:25:27.687Z,61.54
2022-08-23T20:27:59.991Z,61.75
2022-08-23T20:30:32.188Z,61.79
2022-08-23T20:33:05.079Z,61.77
2022-08-23T20:35:37.270Z,61.93
2022-08-23T20:38:09.491Z,62.17
2022-08-23T20:41:01.679Z,62.40
2022-08-23T20:43:39.203Z,62.41
2022-08-23T20:46:11.835Z,62.58
2022-08-23T20:48:44.141Z,62.61
2022-08-23T20:51:16.375Z,62.49
2022-08-23T20:53:48.608Z,62.92
2022-08-23T20:56:21.651Z,62.70
2022-08-23T20:58:54.339Z,62.83
2022-08-23T21:01:26.603Z,62.93
2022-08-23T21:03:58.795Z,63.11
2022-08-23T21:06:38.741Z,63.12
2022-08-23T21:09:12.401Z,63.21
2022-08-23T21:11:45.390Z,63.32
2022-08-23T21:14:20.744Z,63.17
2022-08-23T21:16:53.225Z,63.15
2022-08-23T21:19:25.700Z,63.17
2022-08-23T21:21:58.613Z,63.16
2022-08-23T21:24:32.402Z,63.28
2022-08-23T21:27:09.585Z,63.22
2022-08-23T21:29:42.297Z,63.14
2022-08-23T21:32:14.479Z,63.13
2022-08-23T21:34:46.993Z,63.05
2022-08-23T21:37:19.215Z,63.14
2022-08-23T21:39:52.708Z,63.20
2022-08-23T21:42:26.228Z,63.20
2022-08-23T21:44:58.415Z,63.14
2022-08-23T21:47:30.528Z,63.30
2022-08-23T21:50:02.692Z,63.33
2022-08-23T21:52:34.900Z,63.47
2022-08-23T21:55:08.767Z,63.67
2022-08-23T21:57:41.404Z,63.58
2022-08-23T22:00:17.462Z,63.51
2022-08-23T22:02:49.634Z,63.57
2022-08-23T22:05:21.931Z,63.63
2022-08-23T22:07:54.259Z,63.75
2022-08-23T22:10:27.704Z,63.50
2022-08-23T22:13:01.675Z,63.46
2022-08-23T22:15:33.981Z,63.59
2022-08-23T22:18:06.918Z,63.37
2022-08-23T22:20:39.203Z,63.31
2022-08-23T22:23:11.693Z,63.35
2022-08-23T22:25:43.885Z,63.56
2022-08-23T22:28:16.064Z,63.67
2022-08-23T22:30:48.366Z,63.68
2022-08-23T22:33:20.620Z,63.66
2022-08-23T22:35:52.793Z,63.57
2022-08-23T22:38:25.749Z,63.53
2022-08-23T22:40:58.411Z,63.35
2022-08-23T22:43:30.798Z,63.56
2022-08-23T22:46:05.015Z,63.51
2022-08-23T22:48:37.388Z,63.33
2022-08-23T22:51:12.784Z,63.48
2022-08-23T22:53:47.645Z,63.60
2022-08-23T22:56:23.103Z,63.73
2022-08-23T22:58:55.491Z,63.69
2022-08-23T23:01:29.657Z,63.64
2022-08-23T23:04:03.657Z,63.39
2022-08-23T23:06:36.279Z,63.39
2022-08-23T23:09:09.845Z,63.49
2022-08-23T23:11:42.742Z,63.52
2022-08-23T23:14:16.529Z,63.71
2022-08-23T23:16:50.231Z,63.78
2022-08-23T23:19:40.780Z,63.72
2022-08-23T23:22:12.984Z,63.70
2022-08-23T23:24:45.125Z,63.74
2022-08-23T23:27:17.294Z,63.67
2022-08-23T23:29:49.534Z,63.70
2022-08-23T23:32:22.021Z,63.61
2022-08-23T23:34:54.342Z,63.70
2022-08-23T23:37:30.468Z,63.63
2022-08-23T23:40:02.875Z,63.64
2022-08-23T23:42:35.119Z,63.61
2022-08-23T23:45:09.049Z,63.70
2022-08-23T23:47:42.633Z,63.69
2022-08-23T23:50:16.907Z,63.57
2022-08-23T23:52:49.167Z,63.47
2022-08-23T23:55:23.135Z,63.56
2022-08-23T23:57:56.899Z,63.65
